sensor_id;sensor_type;location;lat;lon;timestamp;pressure;altitude;pressure_sealevel;temperature;humidity
12757;BME280;31601;48.042;12.240;2023-07-02T00:01:07;95633.56;;;19.24;76.99
12757;BME280;31601;48.042;12.240;2023-07-02T00:03:33;95631.44;;;19.26;76.73
12757;BME280;31601;48.042;12.240;2023-07-02T00:06:01;95624.03;;;19.28;76.43
12757;BME280;31601;48.042;12.240;2023-07-02T00:08:28;95636.63;;;19.10;76.57
12757;BME280;31601;48.042;12.240;2023-07-02T00:10:54;95633.56;;;19.24;75.93
12757;BME280;31601;48.042;12.240;2023-07-02T00:13:21;95635.44;;;19.23;76.01
12757;BME280;31601;48.042;12.240;2023-07-02T00:15:47;95631.19;;;19.27;75.88
12757;BME280;31601;48.042;12.240;2023-07-02T00:18:14;95622.97;;;19.29;75.95
12757;BME280;31601;48.042;12.240;2023-07-02T00:20:41;95622.78;;;19.36;75.75
12757;BME280;31601;48.042;12.240;2023-07-02T00:23:09;95630.78;;;19.41;75.16
12757;BME280;31601;48.042;12.240;2023-07-02T00:25:36;95630.50;;;19.37;74.50
12757;BME280;31601;48.042;12.240;2023-07-02T00:28:03;95633.66;;;19.34;74.86
12757;BME280;31601;48.042;12.240;2023-07-02T00:30:29;95639.03;;;19.44;74.19
12757;BME280;31601;48.042;12.240;2023-07-02T00:32:56;95636.94;;;19.46;74.29
12757;BME280;31601;48.042;12.240;2023-07-02T00:35:22;95634.56;;;19.50;74.30
12757;BME280;31601;48.042;12.240;2023-07-02T00:37:49;95636.47;;;19.55;74.17
12757;BME280;31601;48.042;12.240;2023-07-02T00:40:17;95638.63;;;19.58;73.61
12757;BME280;31601;48.042;12.240;2023-07-02T00:42:43;95637.84;;;19.62;73.31
12757;BME280;31601;48.042;12.240;2023-07-02T00:45:10;95635.72;;;19.64;73.67
12757;BME280;31601;48.042;12.240;2023-07-02T00:47:36;95641.38;;;19.68;73.19
12757;BME280;31601;48.042;12.240;2023-07-02T00:50:03;95631.22;;;19.65;73.14
12757;BME280;31601;48.042;12.240;2023-07-02T00:52:30;95634.41;;;19.62;73.12
12757;BME280;31601;48.042;12.240;2023-07-02T00:54:57;95630.66;;;19.63;73.11
12757;BME280;31601;48.042;12.240;2023-07-02T00:57:25;95624.28;;;19.59;72.92
12757;BME280;31601;48.042;12.240;2023-07-02T00:59:55;95630.09;;;19.56;72.96
12757;BME280;31601;48.042;12.240;2023-07-02T01:02:21;95626.84;;;19.48;73.61
12757;BME280;31601;48.042;12.240;2023-07-02T01:04:51;95639.00;;;19.39;74.25
12757;BME280;31601;48.042;12.240;2023-07-02T01:07:22;95630.50;;;19.37;73.89
12757;BME280;31601;48.042;12.240;2023-07-02T01:09:49;95628.97;;;19.46;73.81
12757;BME280;31601;48.042;12.240;2023-07-02T01:12:17;95622.63;;;19.53;73.69
12757;BME280;31601;48.042;12.240;2023-07-02T01:14:48;95622.31;;;19.49;73.83
12757;BME280;31601;48.042;12.240;2023-07-02T01:17:18;95624.44;;;19.47;73.67
12757;BME280;31601;48.042;12.240;2023-07-02T01:19:49;95630.03;;;19.45;73.67
12757;BME280;31601;48.042;12.240;2023-07-02T01:22:18;95624.19;;;19.48;73.60
12757;BME280;31601;48.042;12.240;2023-07-02T01:24:45;95633.78;;;19.49;74.04
12757;BME280;31601;48.042;12.240;2023-07-02T01:27:13;95634.84;;;19.54;73.74
12757;BME280;31601;48.042;12.240;2023-07-02T01:29:40;95630.63;;;19.58;73.65
12757;BME280;31601;48.042;12.240;2023-07-02T01:32:07;95632.75;;;19.56;73.71
12757;BME280;31601;48.042;12.240;2023-07-02T01:34:34;95635.44;;;19.56;73.64
12757;BME280;31601;48.042;12.240;2023-07-02T01:37:03;95634.16;;;19.63;73.13
12757;BME280;31601;48.042;12.240;2023-07-02T01:39:30;95640.78;;;19.61;73.23
12757;BME280;31601;48.042;12.240;2023-07-02T01:42:07;95640.75;;;19.56;73.14
12757;BME280;31601;48.042;12.240;2023-07-02T01:44:34;95634.06;;;19.53;73.60
12757;BME280;31601;48.042;12.240;2023-07-02T01:47:01;95642.81;;;19.48;73.49
12757;BME280;31601;48.042;12.240;2023-07-02T01:49:28;95637.53;;;19.54;73.62
12757;BME280;31601;48.042;12.240;2023-07-02T01:51:55;95641.00;;;19.54;73.26
12757;BME280;31601;48.042;12.240;2023-07-02T01:54:24;95644.34;;;19.39;73.56
12757;BME280;31601;48.042;12.240;2023-07-02T01:56:52;95649.13;;;19.37;73.97
12757;BME280;31601;48.042;12.240;2023-07-02T01:59:18;95658.16;;;19.36;73.97
12757;BME280;31601;48.042;12.240;2023-07-02T02:01:45;95661.31;;;19.33;74.21
12757;BME280;31601;48.042;12.240;2023-07-02T02:04:12;95665.19;;;19.20;74.42
12757;BME280;31601;48.042;12.240;2023-07-02T02:06:39;95669.25;;;19.28;74.15
12757;BME280;31601;48.042;12.240;2023-07-02T02:09:06;95667.13;;;19.30;74.00
12757;BME280;31601;48.042;12.240;2023-07-02T02:11:37;95673.06;;;19.37;73.88
12757;BME280;31601;48.042;12.240;2023-07-02T02:14:04;95669.25;;;19.28;74.06
12757;BME280;31601;48.042;12.240;2023-07-02T02:16:31;95667.94;;;19.30;74.33
12757;BME280;31601;48.042;12.240;2023-07-02T02:18:59;95669.28;;;19.33;74.06
12757;BME280;31601;48.042;12.240;2023-07-02T02:21:26;95672.41;;;19.25;74.59
12757;BME280;31601;48.042;12.240;2023-07-02T02:23:52;95674.56;;;19.28;74.60
12757;BME280;31601;48.042;12.240;2023-07-02T02:26:20;95666.84;;;19.26;74.85
12757;BME280;31601;48.042;12.240;2023-07-02T02:28:49;95665.00;;;19.32;74.79
12757;BME280;31601;48.042;12.240;2023-07-02T02:31:15;95665.06;;;19.37;74.44
12757;BME280;31601;48.042;12.240;2023-07-02T02:33:42;95667.16;;;19.35;74.75
12757;BME280;31601;48.042;12.240;2023-07-02T02:36:09;95670.84;;;19.29;74.73
12757;BME280;31601;48.042;12.240;2023-07-02T02:38:35;95668.44;;;19.27;74.91
12757;BME280;31601;48.042;12.240;2023-07-02T02:41:02;95662.53;;;19.20;74.53
12757;BME280;31601;48.042;12.240;2023-07-02T02:43:29;95663.22;;;19.10;75.11
12757;BME280;31601;48.042;12.240;2023-07-02T02:45:57;95668.00;;;19.08;75.02
12757;BME280;31601;48.042;12.240;2023-07-02T02:48:23;95665.84;;;19.05;75.26
12757;BME280;31601;48.042;12.240;2023-07-02T02:50:50;95669.78;;;19.03;75.10
12757;BME280;31601;48.042;12.240;2023-07-02T02:53:16;95672.66;;;18.96;75.45
12757;BME280;31601;48.042;12.240;2023-07-02T02:55:43;95670.50;;;18.93;75.86
12757;BME280;31601;48.042;12.240;2023-07-02T02:58:09;95663.56;;;18.92;76.12
12757;BME280;31601;48.042;12.240;2023-07-02T03:00:36;95667.31;;;18.91;76.06
12757;BME280;31601;48.042;12.240;2023-07-02T03:03:04;95669.97;;;18.91;76.23
12757;BME280;31601;48.042;12.240;2023-07-02T03:05:31;95672.63;;;18.91;75.90
12757;BME280;31601;48.042;12.240;2023-07-02T03:07:58;95672.06;;;18.89;76.37
12757;BME280;31601;48.042;12.240;2023-07-02T03:10:25;95668.88;;;18.92;76.47
12757;BME280;31601;48.042;12.240;2023-07-02T03:12:51;95672.66;;;18.96;76.92
12757;BME280;31601;48.042;12.240;2023-07-02T03:15:18;95673.72;;;18.95;76.78
12757;BME280;31601;48.042;12.240;2023-07-02T03:17:44;95672.66;;;18.96;76.29
12757;BME280;31601;48.042;12.240;2023-07-02T03:20:12;95671.66;;;19.02;76.29
12757;BME280;31601;48.042;12.240;2023-07-02T03:22:39;95678.09;;;19.06;75.95
12757;BME280;31601;48.042;12.240;2023-07-02T03:25:06;95682.34;;;19.07;75.98
12757;BME280;31601;48.042;12.240;2023-07-02T03:27:33;95675.38;;;19.01;76.28
12757;BME280;31601;48.042;12.240;2023-07-02T03:29:59;95678.63;;;19.08;76.70
12757;BME280;31601;48.042;12.240;2023-07-02T03:32:25;95667.25;;;19.13;76.14
12757;BME280;31601;48.042;12.240;2023-07-02T03:34:52;95672.59;;;19.18;75.98
12757;BME280;31601;48.042;12.240;2023-07-02T03:37:20;95666.53;;;19.23;75.82
12757;BME280;31601;48.042;12.240;2023-07-02T03:39:46;95666.00;;;19.21;75.93
12757;BME280;31601;48.042;12.240;2023-07-02T03:42:13;95671.66;;;19.29;75.77
12757;BME280;31601;48.042;12.240;2023-07-02T03:44:39;95678.88;;;19.34;75.78
12757;BME280;31601;48.042;12.240;2023-07-02T03:47:06;95677.25;;;19.33;75.55
12757;BME280;31601;48.042;12.240;2023-07-02T03:49:33;95678.66;;;19.41;75.50
12757;BME280;31601;48.042;12.240;2023-07-02T03:52:00;95683.94;;;19.36;74.90
12757;BME280;31601;48.042;12.240;2023-07-02T03:54:28;95690.91;;;19.42;74.90
12757;BME280;31601;48.042;12.240;2023-07-02T03:56:54;95693.56;;;19.42;75.05
12757;BME280;31601;48.042;12.240;2023-07-02T03:59:20;95702.84;;;19.39;74.75
12757;BME280;31601;48.042;12.240;2023-07-02T04:01:47;95701.84;;;19.45;74.87
12757;BME280;31601;48.042;12.240;2023-07-02T04:04:13;95714.91;;;19.47;74.84
12757;BME280;31601;48.042;12.240;2023-07-02T04:06:40;95721.44;;;19.34;75.24
12757;BME280;31601;48.042;12.240;2023-07-02T04:09:06;95727.25;;;19.31;74.98
12757;BME280;31601;48.042;12.240;2023-07-02T04:11:34;95730.47;;;19.33;75.27
12757;BME280;31601;48.042;12.240;2023-07-02T04:14:00;95733.97;;;19.11;75.88
12757;BME280;31601;48.042;12.240;2023-07-02T04:16:27;95737.59;;;19.00;76.50
12757;BME280;31601;48.042;12.240;2023-07-02T04:18:54;95748.75;;;18.80;77.24
12757;BME280;31601;48.042;12.240;2023-07-02T04:21:20;95757.88;;;18.45;78.50
12757;BME280;31601;48.042;12.240;2023-07-02T04:23:47;95789.44;;;17.16;78.17
12757;BME280;31601;48.042;12.240;2023-07-02T04:26:13;95784.16;;;16.52;74.43
12757;BME280;31601;48.042;12.240;2023-07-02T04:28:41;95789.56;;;16.21;75.11
12757;BME280;31601;48.042;12.240;2023-07-02T04:31:08;95790.72;;;16.14;74.04
12757;BME280;31601;48.042;12.240;2023-07-02T04:33:34;95798.53;;;15.97;75.97
12757;BME280;31601;48.042;12.240;2023-07-02T04:36:02;95797.81;;;15.89;77.45
12757;BME280;31601;48.042;12.240;2023-07-02T04:38:28;95798.06;;;16.00;77.54
12757;BME280;31601;48.042;12.240;2023-07-02T04:40:55;95797.84;;;16.01;77.54
12757;BME280;31601;48.042;12.240;2023-07-02T04:43:29;95798.09;;;16.23;77.16
12757;BME280;31601;48.042;12.240;2023-07-02T04:45:57;95801.28;;;15.90;77.23
12757;BME280;31601;48.042;12.240;2023-07-02T04:48:24;95797.88;;;16.13;77.19
12757;BME280;31601;48.042;12.240;2023-07-02T04:50:50;95809.38;;;16.07;76.83
12757;BME280;31601;48.042;12.240;2023-07-02T04:53:17;95813.50;;;16.26;76.26
12757;BME280;31601;48.042;12.240;2023-07-02T04:55:43;95801.09;;;16.15;77.01
12757;BME280;31601;48.042;12.240;2023-07-02T04:58:10;95804.28;;;16.64;75.58
12757;BME280;31601;48.042;12.240;2023-07-02T05:00:36;95801.38;;;16.90;75.18
12757;BME280;31601;48.042;12.240;2023-07-02T05:03:04;95805.34;;;17.16;75.13
12757;BME280;31601;48.042;12.240;2023-07-02T05:05:31;95797.97;;;17.18;73.78
12757;BME280;31601;48.042;12.240;2023-07-02T05:07:57;95793.25;;;17.49;73.74
12757;BME280;31601;48.042;12.240;2023-07-02T05:10:24;95796.28;;;17.58;73.72
12757;BME280;31601;48.042;12.240;2023-07-02T05:12:50;95804.28;;;17.75;72.86
12757;BME280;31601;48.042;12.240;2023-07-02T05:15:16;95803.06;;;17.82;72.22
12757;BME280;31601;48.042;12.240;2023-07-02T05:17:43;95810.84;;;18.01;71.87
12757;BME280;31601;48.042;12.240;2023-07-02T05:20:11;95814.22;;;18.13;71.59
12757;BME280;31601;48.042;12.240;2023-07-02T05:22:38;95808.91;;;18.30;71.34
12757;BME280;31601;48.042;12.240;2023-07-02T05:25:05;95814.69;;;18.44;70.92
12757;BME280;31601;48.042;12.240;2023-07-02T05:27:32;95817.25;;;18.56;70.40
12757;BME280;31601;48.042;12.240;2023-07-02T05:29:58;95808.09;;;18.47;69.78
12757;BME280;31601;48.042;12.240;2023-07-02T05:32:24;95805.97;;;18.49;69.25
12757;BME280;31601;48.042;12.240;2023-07-02T05:34:51;95810.31;;;18.55;68.79
12757;BME280;31601;48.042;12.240;2023-07-02T05:37:19;95804.28;;;18.59;68.99
12757;BME280;31601;48.042;12.240;2023-07-02T05:39:45;95805.63;;;18.62;69.23
12757;BME280;31601;48.042;12.240;2023-07-02T05:42:12;95808.59;;;18.66;69.18
12757;BME280;31601;48.042;12.240;2023-07-02T05:44:38;95808.06;;;18.64;69.44
12757;BME280;31601;48.042;12.240;2023-07-02T05:47:05;95815.13;;;18.58;69.20
12757;BME280;31601;48.042;12.240;2023-07-02T05:49:31;95817.44;;;18.49;69.24
12757;BME280;31601;48.042;12.240;2023-07-02T05:51:58;95831.94;;;18.41;69.17
12757;BME280;31601;48.042;12.240;2023-07-02T05:54:25;95837.63;;;18.33;69.85
12757;BME280;31601;48.042;12.240;2023-07-02T05:56:52;95852.28;;;18.19;70.03
12757;BME280;31601;48.042;12.240;2023-07-02T05:59:18;95853.91;;;18.20;70.26
12757;BME280;31601;48.042;12.240;2023-07-02T06:01:45;95858.97;;;18.04;70.42
12757;BME280;31601;48.042;12.240;2023-07-02T06:04:11;95858.25;;;18.09;70.93
12757;BME280;31601;48.042;12.240;2023-07-02T06:06:37;95861.53;;;18.16;71.02
12757;BME280;31601;48.042;12.240;2023-07-02T06:09:04;95868.50;;;18.05;71.07
12757;BME280;31601;48.042;12.240;2023-07-02T06:11:32;95872.50;;;18.20;70.95
12757;BME280;31601;48.042;12.240;2023-07-02T06:13:58;95869.91;;;18.25;70.61
12757;BME280;31601;48.042;12.240;2023-07-02T06:16:25;95861.78;;;18.32;70.31
12757;BME280;31601;48.042;12.240;2023-07-02T06:18:51;95867.19;;;18.37;70.64
12757;BME280;31601;48.042;12.240;2023-07-02T06:21:18;95866.34;;;18.36;70.05
12757;BME280;31601;48.042;12.240;2023-07-02T06:23:46;95870.78;;;18.48;69.75
12757;BME280;31601;48.042;12.240;2023-07-02T06:26:14;95865.06;;;18.56;69.56
12757;BME280;31601;48.042;12.240;2023-07-02T06:28:42;95866.53;;;18.47;69.71
12757;BME280;31601;48.042;12.240;2023-07-02T06:31:08;95864.34;;;18.60;70.18
12757;BME280;31601;48.042;12.240;2023-07-02T06:33:38;95865.06;;;18.56;69.85
12757;BME280;31601;48.042;12.240;2023-07-02T06:36:05;95863.53;;;18.60;70.17
12757;BME280;31601;48.042;12.240;2023-07-02T06:38:31;95853.22;;;18.64;69.75
12757;BME280;31601;48.042;12.240;2023-07-02T06:40:58;95852.50;;;18.68;69.53
12757;BME280;31601;48.042;12.240;2023-07-02T06:43:24;95858.09;;;18.89;69.04
12757;BME280;31601;48.042;12.240;2023-07-02T06:45:52;95850.53;;;18.98;69.09
12757;BME280;31601;48.042;12.240;2023-07-02T06:48:18;95848.41;;;19.00;68.18
12757;BME280;31601;48.042;12.240;2023-07-02T06:50:46;95848.41;;;19.00;67.83
12757;BME280;31601;48.042;12.240;2023-07-02T06:53:13;95854.28;;;19.24;67.94
12757;BME280;31601;48.042;12.240;2023-07-02T06:55:39;95853.41;;;19.18;67.40
12757;BME280;31601;48.042;12.240;2023-07-02T06:58:06;95859.00;;;19.17;67.68
12757;BME280;31601;48.042;12.240;2023-07-02T07:00:33;95864.50;;;19.10;68.07
12757;BME280;31601;48.042;12.240;2023-07-02T07:03:02;95870.84;;;18.87;68.07
12757;BME280;31601;48.042;12.240;2023-07-02T07:05:29;95864.72;;;18.86;68.56
12757;BME280;31601;48.042;12.240;2023-07-02T07:07:56;95863.00;;;18.97;68.91
12757;BME280;31601;48.042;12.240;2023-07-02T07:10:22;95873.47;;;19.04;68.60
12757;BME280;31601;48.042;12.240;2023-07-02T07:12:49;95873.84;;;19.12;68.34
12757;BME280;31601;48.042;12.240;2023-07-02T07:15:15;95875.47;;;18.96;68.21
12757;BME280;31601;48.042;12.240;2023-07-02T07:17:42;95868.53;;;19.12;67.82
12757;BME280;31601;48.042;12.240;2023-07-02T07:20:10;95858.44;;;18.92;68.31
12757;BME280;31601;48.042;12.240;2023-07-02T07:22:37;95864.38;;;18.83;68.26
12757;BME280;31601;48.042;12.240;2023-07-02T07:25:05;95864.38;;;18.83;68.03
12757;BME280;31601;48.042;12.240;2023-07-02T07:27:31;95873.06;;;18.78;68.91
12757;BME280;31601;48.042;12.240;2023-07-02T07:29:57;95864.84;;;18.79;68.73
12757;BME280;31601;48.042;12.240;2023-07-02T07:32:24;95874.22;;;18.82;69.04
12757;BME280;31601;48.042;12.240;2023-07-02T07:34:50;95867.50;;;18.79;68.73
12757;BME280;31601;48.042;12.240;2023-07-02T07:37:18;95875.38;;;18.86;68.63
12757;BME280;31601;48.042;12.240;2023-07-02T07:39:45;95872.34;;;18.83;68.96
12757;BME280;31601;48.042;12.240;2023-07-02T07:42:11;95872.47;;;18.88;69.10
12757;BME280;31601;48.042;12.240;2023-07-02T07:44:39;95872.09;;;18.84;69.30
12757;BME280;31601;48.042;12.240;2023-07-02T07:47:05;95875.66;;;18.90;69.22
12757;BME280;31601;48.042;12.240;2023-07-02T07:49:32;95876.31;;;18.97;69.03
12757;BME280;31601;48.042;12.240;2023-07-02T07:51:58;95875.38;;;19.08;69.29
12757;BME280;31601;48.042;12.240;2023-07-02T07:54:26;95882.13;;;19.16;69.21
12757;BME280;31601;48.042;12.240;2023-07-02T07:56:52;95878.19;;;19.19;69.39
12757;BME280;31601;48.042;12.240;2023-07-02T07:59:19;95875.31;;;19.25;69.06
12757;BME280;31601;48.042;12.240;2023-07-02T08:01:45;95874.03;;;19.28;68.54
12757;BME280;31601;48.042;12.240;2023-07-02T08:04:12;95874.84;;;19.28;67.76
12757;BME280;31601;48.042;12.240;2023-07-02T08:06:38;95878.44;;;19.17;68.18
12757;BME280;31601;48.042;12.240;2023-07-02T08:09:05;95880.97;;;18.90;68.52
12757;BME280;31601;48.042;12.240;2023-07-02T08:11:32;95872.81;;;18.96;68.68
12757;BME280;31601;48.042;12.240;2023-07-02T08:13:59;95875.38;;;18.86;69.17
12757;BME280;31601;48.042;12.240;2023-07-02T08:16:25;95883.69;;;18.95;68.64
12757;BME280;31601;48.042;12.240;2023-07-02T08:18:52;95888.47;;;18.93;68.73
12757;BME280;31601;48.042;12.240;2023-07-02T08:21:19;95894.56;;;18.76;68.83
12757;BME280;31601;48.042;12.240;2023-07-02T08:23:45;95889.19;;;18.71;68.62
12757;BME280;31601;48.042;12.240;2023-07-02T08:26:12;95888.66;;;18.69;68.79
12757;BME280;31601;48.042;12.240;2023-07-02T08:28:41;95903.72;;;18.47;69.03
12757;BME280;31601;48.042;12.240;2023-07-02T08:31:07;95899.53;;;18.34;70.46
12757;BME280;31601;48.042;12.240;2023-07-02T08:33:33;95914.53;;;18.11;71.59
12757;BME280;31601;48.042;12.240;2023-07-02T08:36:00;95923.38;;;18.00;72.04
12757;BME280;31601;48.042;12.240;2023-07-02T08:38:27;95922.00;;;17.97;72.24
12757;BME280;31601;48.042;12.240;2023-07-02T08:40:53;95917.88;;;17.78;74.03
12757;BME280;31601;48.042;12.240;2023-07-02T08:43:19;95923.53;;;17.52;74.04
12757;BME280;31601;48.042;12.240;2023-07-02T08:45:47;95922.03;;;17.57;74.93
12757;BME280;31601;48.042;12.240;2023-07-02T08:48:14;95916.63;;;17.80;74.38
12757;BME280;31601;48.042;12.240;2023-07-02T08:50:42;95912.69;;;18.29;73.83
12757;BME280;31601;48.042;12.240;2023-07-02T08:53:08;95924.47;;;18.67;72.80
12757;BME280;31601;48.042;12.240;2023-07-02T08:55:35;95917.28;;;18.84;71.15
12757;BME280;31601;48.042;12.240;2023-07-02T08:58:01;95927.13;;;18.50;69.81
12757;BME280;31601;48.042;12.240;2023-07-02T09:00:28;95920.84;;;18.22;73.08
12757;BME280;31601;48.042;12.240;2023-07-02T09:02:57;95924.88;;;18.75;71.41
12757;BME280;31601;48.042;12.240;2023-07-02T09:05:24;95923.38;;;19.19;71.06
12757;BME280;31601;48.042;12.240;2023-07-02T09:07:50;95927.03;;;19.57;70.93
12757;BME280;31601;48.042;12.240;2023-07-02T09:10:28;95920.94;;;20.06;69.60
12757;BME280;31601;48.042;12.240;2023-07-02T09:13:05;95925.81;;;19.87;67.42
12757;BME280;31601;48.042;12.240;2023-07-02T09:15:36;95928.22;;;19.88;67.74
12757;BME280;31601;48.042;12.240;2023-07-02T09:18:14;95934.91;;;20.50;66.43
12757;BME280;31601;48.042;12.240;2023-07-02T09:20:41;95933.63;;;20.85;65.97
12757;BME280;31601;48.042;12.240;2023-07-02T09:23:07;95933.63;;;20.85;65.99
12757;BME280;31601;48.042;12.240;2023-07-02T09:25:35;95929.72;;;20.33;65.58
12757;BME280;31601;48.042;12.240;2023-07-02T09:28:13;95940.94;;;20.08;66.46
12757;BME280;31601;48.042;12.240;2023-07-02T09:30:49;95940.06;;;20.02;67.00
12757;BME280;31601;48.042;12.240;2023-07-02T09:33:17;95940.34;;;19.57;69.12
12757;BME280;31601;48.042;12.240;2023-07-02T09:35:43;95955.22;;;19.13;70.40
12757;BME280;31601;48.042;12.240;2023-07-02T09:38:10;95950.56;;;19.04;71.40
12757;BME280;31601;48.042;12.240;2023-07-02T09:40:42;95951.34;;;18.36;74.38
12757;BME280;31601;48.042;12.240;2023-07-02T09:43:11;95945.16;;;18.48;75.24
12757;BME280;31601;48.042;12.240;2023-07-02T09:45:38;95948.19;;;18.39;76.22
12757;BME280;31601;48.042;12.240;2023-07-02T09:48:06;95947.19;;;18.74;75.28
12757;BME280;31601;48.042;12.240;2023-07-02T09:50:34;95953.88;;;18.94;74.77
12757;BME280;31601;48.042;12.240;2023-07-02T09:53:03;95949.88;;;19.13;73.32
12757;BME280;31601;48.042;12.240;2023-07-02T09:55:30;95943.06;;;19.40;73.32
12757;BME280;31601;48.042;12.240;2023-07-02T09:57:57;95944.63;;;19.58;72.24
12757;BME280;31601;48.042;12.240;2023-07-02T10:00:24;95948.59;;;19.77;70.93
12757;BME280;31601;48.042;12.240;2023-07-02T10:02:50;95940.09;;;20.30;69.42
12757;BME280;31601;48.042;12.240;2023-07-02T10:05:25;95941.44;;;20.65;68.27
12757;BME280;31601;48.042;12.240;2023-07-02T10:07:53;95941.34;;;20.22;68.23
12757;BME280;31601;48.042;12.240;2023-07-02T10:10:27;95943.53;;;20.30;68.47
12757;BME280;31601;48.042;12.240;2023-07-02T10:12:54;95943.16;;;20.16;68.43
12757;BME280;31601;48.042;12.240;2023-07-02T10:15:24;95944.34;;;20.03;68.98
12757;BME280;31601;48.042;12.240;2023-07-02T10:17:55;95952.69;;;20.39;69.51
12757;BME280;31601;48.042;12.240;2023-07-02T10:20:31;95948.41;;;20.38;67.90
12757;BME280;31601;48.042;12.240;2023-07-02T10:23:00;95951.44;;;21.22;67.93
12757;BME280;31601;48.042;12.240;2023-07-02T10:25:27;95937.88;;;21.92;65.97
12757;BME280;31601;48.042;12.240;2023-07-02T10:27:54;95941.72;;;22.53;64.65
12757;BME280;31601;48.042;12.240;2023-07-02T10:30:30;95936.63;;;22.98;61.57
12757;BME280;31601;48.042;12.240;2023-07-02T10:33:07;95939.00;;;23.25;60.63
12757;BME280;31601;48.042;12.240;2023-07-02T10:35:33;95934.75;;;22.93;58.94
12757;BME280;31601;48.042;12.240;2023-07-02T10:38:01;95940.09;;;22.83;59.78
12757;BME280;31601;48.042;12.240;2023-07-02T10:40:28;95939.22;;;23.34;59.33
12757;BME280;31601;48.042;12.240;2023-07-02T10:42:55;95937.81;;;23.62;58.10
12757;BME280;31601;48.042;12.240;2023-07-02T10:45:31;95941.38;;;22.13;58.83
12757;BME280;31601;48.042;12.240;2023-07-02T10:47:58;95941.19;;;22.41;60.81
12757;BME280;31601;48.042;12.240;2023-07-02T10:50:24;95934.22;;;23.12;60.28
12757;BME280;31601;48.042;12.240;2023-07-02T10:52:53;95933.94;;;23.13;58.53
12757;BME280;31601;48.042;12.240;2023-07-02T10:55:22;95935.47;;;23.45;57.34
12757;BME280;31601;48.042;12.240;2023-07-02T10:57:50;95925.88;;;23.94;56.56
12757;BME280;31601;48.042;12.240;2023-07-02T11:00:17;95925.19;;;23.73;56.33
12757;BME280;31601;48.042;12.240;2023-07-02T11:02:44;95921.72;;;23.67;57.37
12757;BME280;31601;48.042;12.240;2023-07-02T11:05:11;95925.41;;;23.87;56.93
12757;BME280;31601;48.042;12.240;2023-07-02T11:07:38;95909.16;;;24.12;55.43
12757;BME280;31601;48.042;12.240;2023-07-02T11:10:05;95919.75;;;22.92;56.56
12757;BME280;31601;48.042;12.240;2023-07-02T11:12:33;95917.94;;;22.62;58.43
12757;BME280;31601;48.042;12.240;2023-07-02T11:15:07;95916.03;;;22.83;57.62
12757;BME280;31601;48.042;12.240;2023-07-02T11:17:34;95920.84;;;22.29;59.82
12757;BME280;31601;48.042;12.240;2023-07-02T11:20:00;95918.69;;;23.14;59.28
12757;BME280;31601;48.042;12.240;2023-07-02T11:22:33;95918.75;;;22.47;57.70
12757;BME280;31601;48.042;12.240;2023-07-02T11:25:11;95918.41;;;23.26;57.62
12757;BME280;31601;48.042;12.240;2023-07-02T11:27:40;95914.41;;;23.18;57.65
12757;BME280;31601;48.042;12.240;2023-07-02T11:30:07;95913.31;;;23.14;55.73
12757;BME280;31601;48.042;12.240;2023-07-02T11:32:46;95906.38;;;22.92;57.07
12757;BME280;31601;48.042;12.240;2023-07-02T11:35:14;95904.00;;;22.85;55.67
12757;BME280;31601;48.042;12.240;2023-07-02T11:37:40;95895.47;;;22.83;57.28
12757;BME280;31601;48.042;12.240;2023-07-02T11:40:08;95893.25;;;23.27;57.89
12757;BME280;31601;48.042;12.240;2023-07-02T11:42:34;95896.81;;;22.76;55.18
12757;BME280;31601;48.042;12.240;2023-07-02T11:45:03;95900.50;;;22.03;57.87
12757;BME280;31601;48.042;12.240;2023-07-02T11:47:29;95900.00;;;22.11;58.39
12757;BME280;31601;48.042;12.240;2023-07-02T11:49:56;95888.72;;;21.88;59.11
12757;BME280;31601;48.042;12.240;2023-07-02T11:52:24;95895.47;;;22.42;57.87
12757;BME280;31601;48.042;12.240;2023-07-02T11:54:50;95891.75;;;22.59;57.71
12757;BME280;31601;48.042;12.240;2023-07-02T11:57:17;95895.75;;;22.41;56.77
12757;BME280;31601;48.042;12.240;2023-07-02T11:59:43;95891.16;;;22.93;56.32
12757;BME280;31601;48.042;12.240;2023-07-02T12:02:11;95885.28;;;23.66;56.07
12757;BME280;31601;48.042;12.240;2023-07-02T12:04:38;95884.19;;;23.77;55.02
12757;BME280;31601;48.042;12.240;2023-07-02T12:07:05;95880.50;;;24.47;54.16
12757;BME280;31601;48.042;12.240;2023-07-02T12:09:31;95875.72;;;23.55;54.27
12757;BME280;31601;48.042;12.240;2023-07-02T12:11:58;95875.75;;;24.39;54.74
12757;BME280;31601;48.042;12.240;2023-07-02T12:14:24;95870.31;;;24.79;52.29
12757;BME280;31601;48.042;12.240;2023-07-02T12:16:50;95865.59;;;24.36;50.90
12757;BME280;31601;48.042;12.240;2023-07-02T12:19:18;95871.50;;;23.93;51.35
12757;BME280;31601;48.042;12.240;2023-07-02T12:21:45;95864.03;;;24.30;51.91
12757;BME280;31601;48.042;12.240;2023-07-02T12:24:11;95865.91;;;24.93;50.68
12757;BME280;31601;48.042;12.240;2023-07-02T12:26:39;95860.41;;;25.03;49.74
12757;BME280;31601;48.042;12.240;2023-07-02T12:29:05;95855.13;;;25.17;50.20
12757;BME280;31601;48.042;12.240;2023-07-02T12:31:32;95852.69;;;24.97;50.77
12757;BME280;31601;48.042;12.240;2023-07-02T12:33:58;95850.66;;;24.54;49.87
12757;BME280;31601;48.042;12.240;2023-07-02T12:36:26;95849.75;;;24.69;50.91
12757;BME280;31601;48.042;12.240;2023-07-02T12:38:52;95852.78;;;24.87;51.29
12757;BME280;31601;48.042;12.240;2023-07-02T12:41:19;95851.09;;;24.96;50.83
12757;BME280;31601;48.042;12.240;2023-07-02T12:43:45;95849.84;;;25.12;50.45
12757;BME280;31601;48.042;12.240;2023-07-02T12:46:12;95848.84;;;24.79;51.67
12757;BME280;31601;48.042;12.240;2023-07-02T12:48:38;95846.13;;;24.84;51.26
12757;BME280;31601;48.042;12.240;2023-07-02T12:51:05;95843.69;;;24.58;50.12